sensor_id;sensor_type;location;lat;lon;timestamp;pressure;altitude;pressure_sealevel;temperature;humidity
35023;BME280;21214;44.912;8.204;2023-05-12T00:00:17;99240.44;;;14.35;100.00
35023;BME280;21214;44.912;8.204;2023-05-12T00:02:49;99242.97;;;14.20;100.00
35023;BME280;21214;44.912;8.204;2023-05-12T00:05:14;99242.03;;;14.13;100.00
35023;BME280;21214;44.912;8.204;2023-05-12T00:07:40;99237.19;;;14.17;100.00
35023;BME280;21214;44.912;8.204;2023-05-12T00:10:05;99238.72;;;14.11;100.00
35023;BME280;21214;44.912;8.204;2023-05-12T00:12:32;99243.06;;;14.04;100.00
35023;BME280;21214;44.912;8.204;2023-05-12T00:14:57;99236.44;;;14.00;100.00
35023;BME280;21214;44.912;8.204;2023-05-12T00:17:22;99239.41;;;14.05;100.00
35023;BME280;21214;44.912;8.204;2023-05-12T00:19:48;99234.25;;;14.04;100.00
35023;BME280;21214;44.912;8.204;2023-05-12T00:22:14;99244.72;;;14.05;100.00
35023;BME280;21214;44.912;8.204;2023-05-12T00:24:41;99244.19;;;14.10;100.00
35023;BME280;21214;44.912;8.204;2023-05-12T00:27:06;99232.59;;;14.11;100.00
35023;BME280;21214;44.912;8.204;2023-05-12T00:29:32;99234.44;;;14.02;100.00
35023;BME280;21214;44.912;8.204;2023-05-12T00:31:57;99227.13;;;14.04;100.00
35023;BME280;21214;44.912;8.204;2023-05-12T00:34:23;99235.47;;;13.93;100.00
35023;BME280;21214;44.912;8.204;2023-05-12T00:36:48;99229.00;;;13.96;100.00
35023;BME280;21214;44.912;8.204;2023-05-12T00:39:13;99225.22;;;13.90;100.00
35023;BME280;21214;44.912;8.204;2023-05-12T00:41:39;99224.50;;;13.96;100.00
35023;BME280;21214;44.912;8.204;2023-05-12T00:44:04;99222.91;;;13.87;100.00
35023;BME280;21214;44.912;8.204;2023-05-12T00:46:30;99212.13;;;13.88;100.00
35023;BME280;21214;44.912;8.204;2023-05-12T00:48:55;99212.97;;;13.89;100.00
35023;BME280;21214;44.912;8.204;2023-05-12T00:51:21;99215.59;;;13.89;100.00
35023;BME280;21214;44.912;8.204;2023-05-12T00:53:48;99215.56;;;13.97;100.00
35023;BME280;21214;44.912;8.204;2023-05-12T00:56:15;99210.38;;;14.04;100.00
35023;BME280;21214;44.912;8.204;2023-05-12T00:58:41;99212.41;;;14.02;100.00
35023;BME280;21214;44.912;8.204;2023-05-12T01:01:07;99209.53;;;14.11;100.00
35023;BME280;21214;44.912;8.204;2023-05-12T01:03:32;99209.84;;;14.16;100.00
35023;BME280;21214;44.912;8.204;2023-05-12T01:08:44;99209.16;;;14.14;100.00
35023;BME280;21214;44.912;8.204;2023-05-12T01:11:13;99211.81;;;14.14;100.00
35023;BME280;21214;44.912;8.204;2023-05-12T01:13:38;99206.50;;;14.14;100.00
35023;BME280;21214;44.912;8.204;2023-05-12T01:16:06;99206.50;;;14.14;100.00
35023;BME280;21214;44.912;8.204;2023-05-12T01:18:33;99207.19;;;14.16;100.00
35023;BME280;21214;44.912;8.204;2023-05-12T01:20:59;99197.56;;;14.15;100.00
35023;BME280;21214;44.912;8.204;2023-05-12T01:23:26;99199.69;;;14.20;100.00
35023;BME280;21214;44.912;8.204;2023-05-12T01:26:06;99198.53;;;14.22;100.00
35023;BME280;21214;44.912;8.204;2023-05-12T01:28:33;99192.88;;;14.25;100.00
35023;BME280;21214;44.912;8.204;2023-05-12T01:30:59;99199.00;;;14.26;100.00
35023;BME280;21214;44.912;8.204;2023-05-12T01:33:25;99194.50;;;14.26;100.00
35023;BME280;21214;44.912;8.204;2023-05-12T01:35:50;99193.91;;;14.16;100.00
35023;BME280;21214;44.912;8.204;2023-05-12T01:38:16;99195.22;;;14.20;100.00
35023;BME280;21214;44.912;8.204;2023-05-12T01:40:42;99193.22;;;14.22;100.00
35023;BME280;21214;44.912;8.204;2023-05-12T01:43:08;99200.19;;;14.23;100.00
35023;BME280;21214;44.912;8.204;2023-05-12T01:45:33;99193.22;;;14.22;100.00
35023;BME280;21214;44.912;8.204;2023-05-12T01:47:59;99198.25;;;14.09;100.00
35023;BME280;21214;44.912;8.204;2023-05-12T01:50:24;99191.09;;;14.18;100.00
35023;BME280;21214;44.912;8.204;2023-05-12T01:52:50;99198.06;;;14.19;100.00
35023;BME280;21214;44.912;8.204;2023-05-12T01:55:17;99191.56;;;14.21;100.00
35023;BME280;21214;44.912;8.204;2023-05-12T01:57:48;99191.28;;;14.08;100.00
35023;BME280;21214;44.912;8.204;2023-05-12T02:00:14;99194.47;;;14.04;100.00
35023;BME280;21214;44.912;8.204;2023-05-12T02:02:39;99191.28;;;14.08;100.00
35023;BME280;21214;44.912;8.204;2023-05-12T02:05:05;99192.94;;;14.09;100.00
35023;BME280;21214;44.912;8.204;2023-05-12T02:07:31;99193.00;;;14.01;100.00
35023;BME280;21214;44.912;8.204;2023-05-12T02:09:56;99200.97;;;14.01;100.00
35023;BME280;21214;44.912;8.204;2023-05-12T02:12:23;99194.34;;;13.97;100.00
35023;BME280;21214;44.912;8.204;2023-05-12T02:14:49;99189.84;;;13.98;100.00
35023;BME280;21214;44.912;8.204;2023-05-12T02:17:15;99191.22;;;13.85;100.00
35023;BME280;21214;44.912;8.204;2023-05-12T02:19:41;99184.50;;;13.75;100.00
35023;BME280;21214;44.912;8.204;2023-05-12T02:22:08;99183.81;;;13.81;100.00
35023;BME280;21214;44.912;8.204;2023-05-12T02:24:34;99180.38;;;13.72;100.00
35023;BME280;21214;44.912;8.204;2023-05-12T02:26:59;99188.50;;;13.71;100.00
35023;BME280;21214;44.912;8.204;2023-05-12T02:29:25;99190.97;;;13.72;100.00
35023;BME280;21214;44.912;8.204;2023-05-12T02:31:50;99193.63;;;13.72;100.00
35023;BME280;21214;44.912;8.204;2023-05-12T02:34:16;99196.13;;;13.66;100.00
35023;BME280;21214;44.912;8.204;2023-05-12T02:36:41;99189.50;;;13.62;100.00
35023;BME280;21214;44.912;8.204;2023-05-12T02:39:07;99189.50;;;13.62;100.00
35023;BME280;21214;44.912;8.204;2023-05-12T02:41:32;99194.81;;;13.62;100.00
35023;BME280;21214;44.912;8.204;2023-05-12T02:43:58;99192.34;;;13.60;100.00
35023;BME280;21214;44.912;8.204;2023-05-12T02:46:23;99193.50;;;13.58;100.00
35023;BME280;21214;44.912;8.204;2023-05-12T02:48:49;99197.16;;;13.57;100.00
35023;BME280;21214;44.912;8.204;2023-05-12T02:51:14;99199.97;;;13.55;100.00
35023;BME280;21214;44.912;8.204;2023-05-12T02:53:40;99203.81;;;13.44;100.00
35023;BME280;21214;44.912;8.204;2023-05-12T02:56:05;99200.50;;;13.42;100.00
35023;BME280;21214;44.912;8.204;2023-05-12T02:58:30;99197.19;;;13.40;100.00
35023;BME280;21214;44.912;8.204;2023-05-12T03:00:56;99198.03;;;13.41;100.00
35023;BME280;21214;44.912;8.204;2023-05-12T03:03:22;99195.38;;;13.33;100.00
35023;BME280;21214;44.912;8.204;2023-05-12T03:05:47;99200.69;;;13.33;100.00
35023;BME280;21214;44.912;8.204;2023-05-12T03:08:14;99200.53;;;13.26;100.00
35023;BME280;21214;44.912;8.204;2023-05-12T03:10:39;99201.88;;;13.30;100.00
35023;BME280;21214;44.912;8.204;2023-05-12T03:13:05;99199.84;;;13.32;100.00
35023;BME280;21214;44.912;8.204;2023-05-12T03:15:30;99207.16;;;13.30;100.00
35023;BME280;21214;44.912;8.204;2023-05-12T03:17:55;99204.50;;;13.30;100.00
35023;BME280;21214;44.912;8.204;2023-05-12T03:20:21;99212.47;;;13.30;100.00
35023;BME280;21214;44.912;8.204;2023-05-12T03:22:46;99207.66;;;13.34;100.00
35023;BME280;21214;44.912;8.204;2023-05-12T03:25:11;99205.97;;;13.33;100.00
35023;BME280;21214;44.912;8.204;2023-05-12T03:27:37;99214.09;;;13.31;100.00
35023;BME280;21214;44.912;8.204;2023-05-12T03:30:02;99204.50;;;13.30;100.00
35023;BME280;21214;44.912;8.204;2023-05-12T03:32:31;99207.47;;;13.27;100.00
35023;BME280;21214;44.912;8.204;2023-05-12T03:34:57;99201.88;;;13.30;100.00
35023;BME280;21214;44.912;8.204;2023-05-12T03:37:22;99202.19;;;13.35;100.00
35023;BME280;21214;44.912;8.204;2023-05-12T03:39:48;99204.47;;;13.38;100.00
35023;BME280;21214;44.912;8.204;2023-05-12T03:42:13;99197.56;;;13.29;100.00
35023;BME280;21214;44.912;8.204;2023-05-12T03:44:39;99205.34;;;13.31;100.00
35023;BME280;21214;44.912;8.204;2023-05-12T03:47:05;99211.13;;;13.26;100.00
35023;BME280;21214;44.912;8.204;2023-05-12T03:49:31;99200.88;;;13.23;100.00
35023;BME280;21214;44.912;8.204;2023-05-12T03:51:56;99202.19;;;13.27;100.00
35023;BME280;21214;44.912;8.204;2023-05-12T03:54:21;99200.53;;;13.10;100.00
35023;BME280;21214;44.912;8.204;2023-05-12T03:56:47;99194.41;;;12.85;100.00
35023;BME280;21214;44.912;8.204;2023-05-12T03:59:13;99200.56;;;12.78;100.00
35023;BME280;21214;44.912;8.204;2023-05-12T04:01:38;99188.47;;;12.83;100.00
35023;BME280;21214;44.912;8.204;2023-05-12T04:04:04;99192.59;;;12.86;100.00
35023;BME280;21214;44.912;8.204;2023-05-12T04:06:29;99195.25;;;12.78;100.00
35023;BME280;21214;44.912;8.204;2023-05-12T04:08:56;99190.63;;;12.71;100.00
35023;BME280;21214;44.912;8.204;2023-05-12T04:11:21;99200.19;;;12.48;100.00
35023;BME280;21214;44.912;8.204;2023-05-12T04:13:47;99190.22;;;12.26;100.00
35023;BME280;21214;44.912;8.204;2023-05-12T04:16:12;99183.94;;;12.19;100.00
35023;BME280;21214;44.912;8.204;2023-05-12T04:18:38;99191.19;;;12.17;100.00
35023;BME280;21214;44.912;8.204;2023-05-12T04:21:06;99189.69;;;12.06;100.00
35023;BME280;21214;44.912;8.204;2023-05-12T04:23:31;99192.63;;;11.95;100.00
35023;BME280;21214;44.912;8.204;2023-05-12T04:25:58;99188.53;;;12.09;100.00
35023;BME280;21214;44.912;8.204;2023-05-12T04:28:29;99189.53;;;12.16;100.00
35023;BME280;21214;44.912;8.204;2023-05-12T04:30:54;99194.19;;;12.22;100.00
35023;BME280;21214;44.912;8.204;2023-05-12T04:33:21;99201.44;;;12.12;100.00
35023;BME280;21214;44.912;8.204;2023-05-12T04:35:47;99201.78;;;12.17;100.00
35023;BME280;21214;44.912;8.204;2023-05-12T04:38:12;99207.38;;;12.14;100.00
35023;BME280;21214;44.912;8.204;2023-05-12T04:40:38;99202.41;;;12.11;100.00
35023;BME280;21214;44.912;8.204;2023-05-12T04:43:04;99202.47;;;12.27;100.00
35023;BME280;21214;44.912;8.204;2023-05-12T04:45:30;99206.97;;;12.43;100.00
35023;BME280;21214;44.912;8.204;2023-05-12T04:47:56;99203.50;;;12.50;100.00
35023;BME280;21214;44.912;8.204;2023-05-12T04:50:21;99219.38;;;12.66;100.00
35023;BME280;21214;44.912;8.204;2023-05-12T04:52:46;99212.47;;;12.65;100.00
35023;BME280;21214;44.912;8.204;2023-05-12T04:55:12;99221.72;;;12.69;100.00
35023;BME280;21214;44.912;8.204;2023-05-12T04:57:38;99231.97;;;12.81;100.00
35023;BME280;21214;44.912;8.204;2023-05-12T05:00:05;99229.34;;;12.89;100.00
35023;BME280;21214;44.912;8.204;2023-05-12T05:02:31;99237.94;;;12.99;100.00
35023;BME280;21214;44.912;8.204;2023-05-12T05:04:57;99239.25;;;13.03;100.00
35023;BME280;21214;44.912;8.204;2023-05-12T05:07:23;99242.25;;;13.08;100.00
35023;BME280;21214;44.912;8.204;2023-05-12T05:09:48;99241.25;;;13.09;100.00
35023;BME280;21214;44.912;8.204;2023-05-12T05:12:14;99236.97;;;13.16;100.00
35023;BME280;21214;44.912;8.204;2023-05-12T05:14:40;99238.44;;;13.27;100.00
35023;BME280;21214;44.912;8.204;2023-05-12T05:17:05;99238.28;;;13.36;100.00
35023;BME280;21214;44.912;8.204;2023-05-12T05:19:35;99236.28;;;13.38;100.00
35023;BME280;21214;44.912;8.204;2023-05-12T05:22:01;99233.47;;;13.40;100.00
35023;BME280;21214;44.912;8.204;2023-05-12T05:24:27;99239.75;;;13.39;100.00
35023;BME280;21214;44.912;8.204;2023-05-12T05:26:52;99237.63;;;13.42;100.00
35023;BME280;21214;44.912;8.204;2023-05-12T05:29:18;99246.41;;;13.35;100.00
35023;BME280;21214;44.912;8.204;2023-05-12T05:31:43;99237.94;;;13.39;100.00
35023;BME280;21214;44.912;8.204;2023-05-12T05:34:09;99246.56;;;13.41;100.00
35023;BME280;21214;44.912;8.204;2023-05-12T05:36:35;99234.09;;;13.50;100.00
35023;BME280;21214;44.912;8.204;2023-05-12T05:39:00;99242.88;;;13.50;100.00
35023;BME280;21214;44.912;8.204;2023-05-12T05:41:26;99240.75;;;13.54;100.00
35023;BME280;21214;44.912;8.204;2023-05-12T05:43:51;99246.19;;;13.61;100.00
35023;BME280;21214;44.912;8.204;2023-05-12T05:46:17;99245.06;;;13.47;100.00
35023;BME280;21214;44.912;8.204;2023-05-12T05:48:42;99240.38;;;13.57;100.00
35023;BME280;21214;44.912;8.204;2023-05-12T05:51:09;99250.31;;;13.63;100.00
35023;BME280;21214;44.912;8.204;2023-05-12T05:53:36;99257.06;;;13.74;100.00
35023;BME280;21214;44.912;8.204;2023-05-12T05:56:02;99246.09;;;13.85;100.00
35023;BME280;21214;44.912;8.204;2023-05-12T05:58:28;99258.41;;;13.78;100.00
35023;BME280;21214;44.912;8.204;2023-05-12T06:00:54;99249.31;;;13.72;100.00
35023;BME280;21214;44.912;8.204;2023-05-12T06:03:19;99255.78;;;13.62;100.00
35023;BME280;21214;44.912;8.204;2023-05-12T06:05:45;99259.09;;;13.56;100.00
35023;BME280;21214;44.912;8.204;2023-05-12T06:08:10;99258.09;;;13.65;100.00
35023;BME280;21214;44.912;8.204;2023-05-12T06:10:37;99259.72;;;13.74;100.00
35023;BME280;21214;44.912;8.204;2023-05-12T06:13:03;99257.72;;;13.84;100.00
35023;BME280;21214;44.912;8.204;2023-05-12T06:15:28;99263.84;;;13.84;100.00
35023;BME280;21214;44.912;8.204;2023-05-12T06:17:54;99258.22;;;13.87;100.00
35023;BME280;21214;44.912;8.204;2023-05-12T06:20:19;99258.69;;;13.91;100.00
35023;BME280;21214;44.912;8.204;2023-05-12T06:22:44;99265.31;;;13.95;100.00
35023;BME280;21214;44.912;8.204;2023-05-12T06:25:10;99267.69;;;13.74;100.00
35023;BME280;21214;44.912;8.204;2023-05-12T06:27:36;99266.53;;;13.68;100.00
35023;BME280;21214;44.912;8.204;2023-05-12T06:30:02;99269.34;;;13.83;100.00
35023;BME280;21214;44.912;8.204;2023-05-12T06:32:28;99266.31;;;13.86;100.00
35023;BME280;21214;44.912;8.204;2023-05-12T06:34:53;99273.66;;;13.76;100.00
35023;BME280;21214;44.912;8.204;2023-05-12T06:37:19;99278.94;;;13.84;100.00
35023;BME280;21214;44.912;8.204;2023-05-12T06:39:44;99279.94;;;13.83;100.00
35023;BME280;21214;44.912;8.204;2023-05-12T06:42:10;99277.63;;;13.80;100.00
35023;BME280;21214;44.912;8.204;2023-05-12T06:44:39;99280.63;;;13.69;100.00
35023;BME280;21214;44.912;8.204;2023-05-12T06:47:05;99276.66;;;13.65;100.00
35023;BME280;21214;44.912;8.204;2023-05-12T06:49:30;99281.66;;;13.60;100.00
35023;BME280;21214;44.912;8.204;2023-05-12T06:51:59;99276.69;;;13.57;100.00
35023;BME280;21214;44.912;8.204;2023-05-12T06:54:25;99263.06;;;13.68;100.00
35023;BME280;21214;44.912;8.204;2023-05-12T06:56:50;99272.31;;;13.80;100.00
35023;BME280;21214;44.912;8.204;2023-05-12T06:59:15;99257.06;;;13.90;100.00
35023;BME280;21214;44.912;8.204;2023-05-12T07:01:41;99259.72;;;13.90;100.00
35023;BME280;21214;44.912;8.204;2023-05-12T07:04:07;99258.03;;;13.89;100.00
35023;BME280;21214;44.912;8.204;2023-05-12T07:06:32;99264.50;;;13.94;100.00
35023;BME280;21214;44.912;8.204;2023-05-12T07:08:58;99271.78;;;13.92;100.00
35023;BME280;21214;44.912;8.204;2023-05-12T07:11:23;99274.13;;;13.87;100.00
35023;BME280;21214;44.912;8.204;2023-05-12T07:13:49;99279.63;;;13.78;100.00
35023;BME280;21214;44.912;8.204;2023-05-12T07:16:15;99290.72;;;13.89;100.00
35023;BME280;21214;44.912;8.204;2023-05-12T07:18:40;99290.66;;;13.98;100.00
35023;BME280;21214;44.912;8.204;2023-05-12T07:21:06;99290.81;;;14.04;100.00
35023;BME280;21214;44.912;8.204;2023-05-12T07:23:31;99286.88;;;13.92;100.00
35023;BME280;21214;44.912;8.204;2023-05-12T07:25:58;99286.53;;;13.95;100.00
35023;BME280;21214;44.912;8.204;2023-05-12T07:28:24;99287.16;;;14.05;100.00
35023;BME280;21214;44.912;8.204;2023-05-12T07:30:49;99291.31;;;14.00;100.00
35023;BME280;21214;44.912;8.204;2023-05-12T07:33:15;99290.81;;;14.04;100.00
35023;BME280;21214;44.912;8.204;2023-05-12T07:35:40;99292.78;;;14.02;100.00
35023;BME280;21214;44.912;8.204;2023-05-12T07:38:05;99287.53;;;13.94;100.00
35023;BME280;21214;44.912;8.204;2023-05-12T07:40:33;99295.97;;;13.98;100.00
35023;BME280;21214;44.912;8.204;2023-05-12T07:42:59;99292.78;;;14.02;100.00
35023;BME280;21214;44.912;8.204;2023-05-12T07:45:24;99287.69;;;13.92;100.00
35023;BME280;21214;44.912;8.204;2023-05-12T07:47:50;99291.34;;;13.91;100.00
35023;BME280;21214;44.912;8.204;2023-05-12T07:50:16;99293.81;;;14.01;100.00
35023;BME280;21214;44.912;8.204;2023-05-12T07:52:48;99293.28;;;14.06;100.00
35023;BME280;21214;44.912;8.204;2023-05-12T07:55:14;99296.47;;;14.01;100.00
35023;BME280;21214;44.912;8.204;2023-05-12T07:57:39;99285.56;;;13.88;100.00
35023;BME280;21214;44.912;8.204;2023-05-12T08:00:05;99287.53;;;13.86;100.00
35023;BME280;21214;44.912;8.204;2023-05-12T08:02:38;99289.84;;;13.97;100.00
35023;BME280;21214;44.912;8.204;2023-05-12T08:05:03;99284.88;;;13.94;100.00
35023;BME280;21214;44.912;8.204;2023-05-12T08:07:29;99288.13;;;14.12;100.00
35023;BME280;21214;44.912;8.204;2023-05-12T08:09:54;99281.09;;;14.27;100.00
35023;BME280;21214;44.912;8.204;2023-05-12T08:12:19;99290.94;;;14.19;100.00
35023;BME280;21214;44.912;8.204;2023-05-12T08:14:45;99284.88;;;14.33;100.00
35023;BME280;21214;44.912;8.204;2023-05-12T08:17:10;99282.38;;;14.48;100.00
35023;BME280;21214;44.912;8.204;2023-05-12T08:19:36;99285.78;;;14.56;100.00
35023;BME280;21214;44.912;8.204;2023-05-12T08:22:01;99289.38;;;14.71;100.00
35023;BME280;21214;44.912;8.204;2023-05-12T08:24:27;99288.78;;;14.84;100.00
35023;BME280;21214;44.912;8.204;2023-05-12T08:26:52;99291.38;;;14.92;100.00
35023;BME280;21214;44.912;8.204;2023-05-12T08:29:17;99288.19;;;14.97;100.00
35023;BME280;21214;44.912;8.204;2023-05-12T08:31:43;99292.31;;;14.99;100.00
35023;BME280;21214;44.912;8.204;2023-05-12T08:34:08;99297.28;;;15.02;100.00
35023;BME280;21214;44.912;8.204;2023-05-12T08:36:34;99300.72;;;15.11;100.00
35023;BME280;21214;44.912;8.204;2023-05-12T08:39:00;99305.19;;;15.10;100.00
35023;BME280;21214;44.912;8.204;2023-05-12T08:41:33;99292.28;;;15.07;100.00
35023;BME280;21214;44.912;8.204;2023-05-12T08:44:00;99301.25;;;15.06;100.00
35023;BME280;21214;44.912;8.204;2023-05-12T08:46:26;99303.53;;;15.09;100.00
35023;BME280;21214;44.912;8.204;2023-05-12T08:48:52;99303.91;;;15.06;100.00
35023;BME280;21214;44.912;8.204;2023-05-12T08:51:18;99302.59;;;15.02;100.00
35023;BME280;21214;44.912;8.204;2023-05-12T08:53:43;99300.13;;;15.01;100.00
35023;BME280;21214;44.912;8.204;2023-05-12T08:56:11;99300.97;;;15.01;100.00
35023;BME280;21214;44.912;8.204;2023-05-12T08:58:37;99295.69;;;14.93;100.00
35023;BME280;21214;44.912;8.204;2023-05-12T09:01:04;99303.41;;;14.80;100.00
35023;BME280;21214;44.912;8.204;2023-05-12T09:03:33;99299.50;;;14.68;100.00
35023;BME280;21214;44.912;8.204;2023-05-12T09:05:59;99295.59;;;14.56;100.00
35023;BME280;21214;44.912;8.204;2023-05-12T09:08:25;99300.59;;;14.51;100.00
35023;BME280;21214;44.912;8.204;2023-05-12T09:10:53;99295.34;;;14.34;100.00
35023;BME280;21214;44.912;8.204;2023-05-12T09:16:06;99293.75;;;14.56;100.00
35023;BME280;21214;44.912;8.204;2023-05-12T09:21:16;99296.53;;;14.63;100.00
35023;BME280;21214;44.912;8.204;2023-05-12T09:26:22;99309.63;;;14.72;100.00
35023;BME280;21214;44.912;8.204;2023-05-12T09:28:48;99302.78;;;14.78;100.00
35023;BME280;21214;44.912;8.204;2023-05-12T09:31:15;99303.41;;;14.80;100.00
35023;BME280;21214;44.912;8.204;2023-05-12T09:33:40;99308.25;;;14.77;100.00
35023;BME280;21214;44.912;8.204;2023-05-12T09:36:05;99302.81;;;14.70;100.00
35023;BME280;21214;44.912;8.204;2023-05-12T09:38:31;99303.50;;;14.64;100.00
35023;BME280;21214;44.912;8.204;2023-05-12T09:40:56;99306.19;;;14.56;100.00
35023;BME280;21214;44.912;8.204;2023-05-12T09:43:21;99302.56;;;14.57;100.00
35023;BME280;21214;44.912;8.204;2023-05-12T09:45:47;99297.94;;;14.51;100.00
35023;BME280;21214;44.912;8.204;2023-05-12T09:48:14;99295.78;;;14.54;100.00
35023;BME280;21214;44.912;8.204;2023-05-12T09:50:47;99299.28;;;14.47;100.00
35023;BME280;21214;44.912;8.204;2023-05-12T09:53:13;99297.94;;;14.51;100.00
35023;BME280;21214;44.912;8.204;2023-05-12T09:55:43;99295.94;;;14.53;100.00
35023;BME280;21214;44.912;8.204;2023-05-12T09:58:08;99298.75;;;14.51;100.00
35023;BME280;21214;44.912;8.204;2023-05-12T10:00:35;99302.78;;;14.47;100.00
35023;BME280;21214;44.912;8.204;2023-05-12T10:03:04;99302.41;;;14.50;100.00
35023;BME280;21214;44.912;8.204;2023-05-12T10:05:33;99309.38;;;14.51;100.00
35023;BME280;21214;44.912;8.204;2023-05-12T10:07:59;99305.28;;;14.41;100.00
35023;BME280;21214;44.912;8.204;2023-05-12T10:10:24;99307.47;;;14.29;100.00
35023;BME280;21214;44.912;8.204;2023-05-12T10:12:50;99304.47;;;14.32;100.00
35023;BME280;21214;44.912;8.204;2023-05-12T10:15:16;99308.59;;;14.34;100.00
35023;BME280;21214;44.912;8.204;2023-05-12T10:17:41;99306.28;;;14.40;100.00
35023;BME280;21214;44.912;8.204;2023-05-12T10:20:08;99300.97;;;14.40;100.00
35023;BME280;21214;44.912;8.204;2023-05-12T10:22:34;99303.94;;;14.45;100.00
35023;BME280;21214;44.912;8.204;2023-05-12T10:25:00;99307.13;;;14.40;100.00
35023;BME280;21214;44.912;8.204;2023-05-12T10:27:28;99300.75;;;14.49;100.00
35023;BME280;21214;44.912;8.204;2023-05-12T10:29:56;99300.88;;;14.56;100.00
35023;BME280;21214;44.912;8.204;2023-05-12T10:32:22;99297.38;;;14.63;100.00
35023;BME280;21214;44.912;8.204;2023-05-12T10:34:47;99303.81;;;14.69;100.00
35023;BME280;21214;44.912;8.204;2023-05-12T10:37:13;99306.47;;;14.69;100.00
35023;BME280;21214;44.912;8.204;2023-05-12T10:39:46;99305.78;;;14.75;100.00
35023;BME280;21214;44.912;8.204;2023-05-12T10:42:14;99306.75;;;14.74;100.00
35023;BME280;21214;44.912;8.204;2023-05-12T10:44:48;99313.03;;;14.81;100.00
35023;BME280;21214;44.912;8.204;2023-05-12T10:47:13;99311.06;;;14.75;100.00
35023;BME280;21214;44.912;8.204;2023-05-12T10:49:39;99298.47;;;14.77;100.00
35023;BME280;21214;44.912;8.204;2023-05-12T10:52:06;99296.09;;;14.82;100.00
35023;BME280;21214;44.912;8.204;2023-05-12T10:54:41;99300.72;;;14.88;100.00
35023;BME280;21214;44.912;8.204;2023-05-12T10:57:12;99300.03;;;14.86;100.00
35023;BME280;21214;44.912;8.204;2023-05-12T10:59:55;99301.28;;;14.98;100.00
35023;BME280;21214;44.912;8.204;2023-05-12T11:02:23;99298.22;;;15.09;100.00
35023;BME280;21214;44.912;8.204;2023-05-12T11:07:19;99300.41;;;15.29;100.00
35023;BME280;21214;44.912;8.204;2023-05-12T11:09:46;99304.84;;;15.36;100.00
35023;BME280;21214;44.912;8.204;2023-05-12T11:12:12;99298.59;;;15.44;100.00
35023;BME280;21214;44.912;8.204;2023-05-12T11:14:39;99306.69;;;15.50;100.00
35023;BME280;21214;44.912;8.204;2023-05-12T11:17:04;99310.84;;;15.53;100.00
35023;BME280;21214;44.912;8.204;2023-05-12T11:19:30;99318.16;;;15.51;100.00
35023;BME280;21214;44.912;8.204;2023-05-12T11:21:56;99317.47;;;15.57;100.00
35023;BME280;21214;44.912;8.204;2023-05-12T11:24:22;99319.78;;;15.60;100.00
35023;BME280;21214;44.912;8.204;2023-05-12T11:26:47;99318.41;;;15.64;100.00
35023;BME280;21214;44.912;8.204;2023-05-12T11:29:19;99312.06;;;15.65;100.00
35023;BME280;21214;44.912;8.204;2023-05-12T11:31:46;99309.88;;;15.69;100.00
35023;BME280;21214;44.912;8.204;2023-05-12T11:34:11;99311.97;;;15.73;100.00
35023;BME280;21214;44.912;8.204;2023-05-12T11:36:40;99307.31;;;15.75;100.00
35023;BME280;21214;44.912;8.204;2023-05-12T11:39:11;99314.22;;;15.84;100.00
35023;BME280;21214;44.912;8.204;2023-05-12T11:41:37;99311.19;;;15.87;100.00
35023;BME280;21214;44.912;8.204;2023-05-12T11:44:17;99310.81;;;15.90;100.00
35023;BME280;21214;44.912;8.204;2023-05-12T11:46:56;99306.84;;;15.86;100.00
35023;BME280;21214;44.912;8.204;2023-05-12T11:49:21;99301.34;;;15.73;100.00
35023;BME280;21214;44.912;8.204;2023-05-12T11:51:47;99304.38;;;15.70;100.00
35023;BME280;21214;44.912;8.204;2023-05-12T11:54:13;99305.66;;;15.74;100.00
35023;BME280;21214;44.912;8.204;2023-05-12T11:56:45;99302.66;;;15.77;100.00
35023;BME280;21214;44.912;8.204;2023-05-12T11:59:11;99307.25;;;15.83;100.00
35023;BME280;21214;44.912;8.204;2023-05-12T12:01:42;99311.09;;;15.95;100.00
35023;BME280;21214;44.912;8.204;2023-05-12T12:04:08;99317.91;;;16.13;100.00
35023;BME280;21214;44.912;8.204;2023-05-12T12:06:41;99319.34;;;16.30;100.00
35023;BME280;21214;44.912;8.204;2023-05-12T12:09:07;99326.88;;;16.41;100.00
35023;BME280;21214;44.912;8.204;2023-05-12T12:11:33;99331.19;;;16.42;100.00
35023;BME280;21214;44.912;8.204;2023-05-12T12:13:58;99324.13;;;16.49;100.00
35023;BME280;21214;44.912;8.204;2023-05-12T12:16:25;99327.66;;;16.56;100.00
35023;BME280;21214;44.912;8.204;2023-05-12T12:18:51;99325.94;;;16.34;100.00
35023;BME280;21214;44.912;8.204;2023-05-12T12:21:16;99325.03;;;16.27;100.00
35023;BME280;21214;44.912;8.204;2023-05-12T12:23:45;99334.59;;;16.36;100.00
35023;BME280;21214;44.912;8.204;2023-05-12T12:26:11;99334.78;;;16.49;100.00
35023;BME280;21214;44.912;8.204;2023-05-12T12:28:36;99331.97;;;16.57;100.00
35023;BME280;21214;44.912;8.204;2023-05-12T12:31:02;99331.16;;;16.57;100.00
35023;BME280;21214;44.912;8.204;2023-05-12T12:33:27;99327.94;;;16.61;100.00
35023;BME280;21214;44.912;8.204;2023-05-12T12:35:53;99322.06;;;16.51;100.00
35023;BME280;21214;44.912;8.204;2023-05-12T12:38:18;99324.66;;;16.59;100.00
35023;BME280;21214;44.912;8.204;2023-05-12T12:40:44;99325.19;;;16.69;100.00
35023;BME280;21214;44.912;8.204;2023-05-12T12:43:10;99320.38;;;16.79;100.00
35023;BME280;21214;44.912;8.204;2023-05-12T12:45:38;99321.09;;;16.88;100.00
35023;BME280;21214;44.912;8.204;2023-05-12T12:48:04;99324.84;;;16.94;100.00
35023;BME280;21214;44.912;8.204;2023-05-12T12:50:30;99317.75;;;17.01;100.00
35023;BME280;21214;44.912;8.204;2023-05-12T12:52:56;99316.84;;;17.15;100.00
35023;BME280;21214;44.912;8.204;2023-05-12T12:55:22;99320.47;;;17.29;100.00
35023;BME280;21214;44.912;8.204;2023-05-12T12:57:48;99322.97;;;17.30;100.00